<?xml version="1.0" encoding="UTF-8" standalone="no" ?>
<gpx xmlns="http://www.topografix.com/GPX/1/1" xmlns:xsi="http://www.w3.org/2001/XMLSchema-instance" xsi:schemaLocation="http://www.topografix.com/GPX/1/1 http://www.topografix.com/GPX/1/1/gpx.xsd" version="1.1" creator="VisuGPX - https://www.visugpx.com">
  <metadata>
    <name>5 Châteaux de Arthies</name>
  </metadata>
  <trk>
    <name><![CDATA[5 Châteaux de Arthies]]></name>
    <extensions>
      <line xmlns="http://www.topografix.com/GPX/gpx_style/0/2">
        <color>0000FF</color>
        <width>4</width>
      </line>
    </extensions>
    <trkseg>
      <trkpt lat="49.09416" lon="1.78969">
        <ele>170.2</ele>
        <time>2018-08-05T00:46:41+02:00</time>
      </trkpt>
      <trkpt lat="49.0942" lon="1.78995">
        <ele>169</ele>
        <time>2018-08-05T00:47:00+02:00</time>
      </trkpt>
      <trkpt lat="49.09459" lon="1.78974">
        <ele>167.4</ele>
        <time>2018-08-05T00:47:47+02:00</time>
      </trkpt>
      <trkpt lat="49.095" lon="1.78986">
        <ele>165</ele>
        <time>2018-08-05T00:47:41+02:00</time>
      </trkpt>
      <trkpt lat="49.09588" lon="1.79042">
        <ele>159.4</ele>
        <time>2018-08-05T00:48:41+02:00</time>
      </trkpt>
      <trkpt lat="49.09624" lon="1.79081">
        <ele>157.6</ele>
        <time>2018-08-05T00:49:41+02:00</time>
      </trkpt>
      <trkpt lat="49.09664" lon="1.79123">
        <ele>155.1</ele>
        <time>2018-08-05T00:50:41+02:00</time>
      </trkpt>
      <trkpt lat="49.09701" lon="1.79143">
        <ele>153.8</ele>
        <time>2018-08-05T00:51:41+02:00</time>
      </trkpt>
      <trkpt lat="49.09727" lon="1.79055">
        <ele>154.6</ele>
        <time>2018-08-05T00:52:41+02:00</time>
      </trkpt>
      <trkpt lat="49.09747" lon="1.78979">
        <ele>151.3</ele>
        <time>2018-08-05T00:53:41+02:00</time>
      </trkpt>
      <trkpt lat="49.09764" lon="1.78916">
        <ele>149</ele>
        <time>2018-08-05T00:54:41+02:00</time>
      </trkpt>
      <trkpt lat="49.09793" lon="1.78843">
        <ele>147</ele>
        <time>2018-08-05T00:55:41+02:00</time>
      </trkpt>
      <trkpt lat="49.09805" lon="1.78805">
        <ele>147</ele>
        <time>2018-08-05T00:56:41+02:00</time>
      </trkpt>
      <trkpt lat="49.09798" lon="1.78761">
        <ele>147.3</ele>
        <time>2018-08-05T00:57:41+02:00</time>
      </trkpt>
      <trkpt lat="49.09789" lon="1.7869">
        <ele>145.4</ele>
        <time>2018-08-05T00:58:41+02:00</time>
      </trkpt>
      <trkpt lat="49.0979" lon="1.78618">
        <ele>142.8</ele>
        <time>2018-08-05T00:59:41+02:00</time>
      </trkpt>
      <trkpt lat="49.09791" lon="1.78555">
        <ele>141.5</ele>
        <time>2018-08-05T01:00:41+02:00</time>
      </trkpt>
      <trkpt lat="49.09802" lon="1.78485">
        <ele>141.1</ele>
        <time>2018-08-05T01:01:41+02:00</time>
      </trkpt>
      <trkpt lat="49.09827" lon="1.78392">
        <ele>141.9</ele>
        <time>2018-08-05T01:02:41+02:00</time>
      </trkpt>
      <trkpt lat="49.0985" lon="1.78297">
        <ele>145.9</ele>
        <time>2018-08-05T01:03:41+02:00</time>
      </trkpt>
      <trkpt lat="49.09863" lon="1.78229">
        <ele>148.8</ele>
        <time>2018-08-05T01:04:41+02:00</time>
      </trkpt>
      <trkpt lat="49.09866" lon="1.78164">
        <ele>150.1</ele>
        <time>2018-08-05T01:05:41+02:00</time>
      </trkpt>
      <trkpt lat="49.09874" lon="1.78046">
        <ele>154.2</ele>
        <time>2018-08-05T01:06:41+02:00</time>
      </trkpt>
      <trkpt lat="49.09879" lon="1.77986">
        <ele>155.5</ele>
        <time>2018-08-05T01:07:41+02:00</time>
      </trkpt>
      <trkpt lat="49.0989" lon="1.77901">
        <ele>158.6</ele>
        <time>2018-08-05T01:08:41+02:00</time>
      </trkpt>
      <trkpt lat="49.09897" lon="1.77874">
        <ele>159.5</ele>
        <time>2018-08-05T01:09:41+02:00</time>
      </trkpt>
      <trkpt lat="49.09903" lon="1.77864">
        <ele>159.9</ele>
        <time>2018-08-05T01:10:41+02:00</time>
      </trkpt>
      <trkpt lat="49.09941" lon="1.77822">
        <ele>160.9</ele>
        <time>2018-08-05T01:11:41+02:00</time>
      </trkpt>
      <trkpt lat="49.09957" lon="1.77806">
        <ele>162</ele>
        <time>2018-08-05T01:12:41+02:00</time>
      </trkpt>
      <trkpt lat="49.09942" lon="1.77774">
        <ele>163</ele>
      </trkpt>
      <trkpt lat="49.09956" lon="1.77798">
        <ele>162.3</ele>
      </trkpt>
      <trkpt lat="49.09958" lon="1.77764">
        <ele>163.2</ele>
        <time>2018-08-05T01:13:41+02:00</time>
      </trkpt>
      <trkpt lat="49.09968" lon="1.77708">
        <ele>165.4</ele>
        <time>2018-08-05T01:14:41+02:00</time>
      </trkpt>
      <trkpt lat="49.0998" lon="1.77639">
        <ele>168</ele>
        <time>2018-08-05T01:15:41+02:00</time>
      </trkpt>
      <trkpt lat="49.09986" lon="1.77598">
        <ele>169.2</ele>
        <time>2018-08-05T01:16:41+02:00</time>
      </trkpt>
      <trkpt lat="49.09953" lon="1.77525">
        <ele>169</ele>
        <time>2018-08-05T01:17:41+02:00</time>
      </trkpt>
      <trkpt lat="49.09986" lon="1.77495">
        <ele>167.4</ele>
        <time>2018-08-05T01:18:41+02:00</time>
      </trkpt>
      <trkpt lat="49.09987" lon="1.77477">
        <ele>167</ele>
        <time>2018-08-05T01:19:41+02:00</time>
      </trkpt>
      <trkpt lat="49.09991" lon="1.77429">
        <ele>164.9</ele>
        <time>2018-08-05T01:20:41+02:00</time>
      </trkpt>
      <trkpt lat="49.09993" lon="1.77373">
        <ele>162.7</ele>
        <time>2018-08-05T01:21:41+02:00</time>
      </trkpt>
      <trkpt lat="49.09982" lon="1.77336">
        <ele>160.8</ele>
        <time>2018-08-05T01:22:41+02:00</time>
      </trkpt>
      <trkpt lat="49.09958" lon="1.77279">
        <ele>159.1</ele>
        <time>2018-08-05T01:23:41+02:00</time>
      </trkpt>
      <trkpt lat="49.09945" lon="1.77252">
        <ele>158.1</ele>
        <time>2018-08-05T01:24:41+02:00</time>
      </trkpt>
      <trkpt lat="49.09924" lon="1.77202">
        <ele>158.5</ele>
        <time>2018-08-05T01:25:41+02:00</time>
      </trkpt>
      <trkpt lat="49.09892" lon="1.77135">
        <ele>159.9</ele>
        <time>2018-08-05T01:26:41+02:00</time>
      </trkpt>
      <trkpt lat="49.09855" lon="1.77045">
        <ele>161.1</ele>
        <time>2018-08-05T01:27:41+02:00</time>
      </trkpt>
      <trkpt lat="49.09827" lon="1.76985">
        <ele>160</ele>
        <time>2018-08-05T01:28:41+02:00</time>
      </trkpt>
      <trkpt lat="49.09799" lon="1.76939">
        <ele>157.8</ele>
        <time>2018-08-05T01:29:41+02:00</time>
      </trkpt>
      <trkpt lat="49.09749" lon="1.76883">
        <ele>156.9</ele>
        <time>2018-08-05T01:30:41+02:00</time>
      </trkpt>
      <trkpt lat="49.09733" lon="1.76848">
        <ele>157.5</ele>
        <time>2018-08-05T01:31:41+02:00</time>
      </trkpt>
      <trkpt lat="49.0972" lon="1.76798">
        <ele>159.4</ele>
        <time>2018-08-05T01:32:41+02:00</time>
      </trkpt>
      <trkpt lat="49.09707" lon="1.76732">
        <ele>160.9</ele>
        <time>2018-08-05T01:33:41+02:00</time>
      </trkpt>
      <trkpt lat="49.09684" lon="1.76649">
        <ele>161.8</ele>
        <time>2018-08-05T01:34:41+02:00</time>
      </trkpt>
      <trkpt lat="49.09668" lon="1.76569">
        <ele>161.4</ele>
        <time>2018-08-05T01:35:41+02:00</time>
      </trkpt>
      <trkpt lat="49.0965" lon="1.76489">
        <ele>161.2</ele>
        <time>2018-08-05T01:36:41+02:00</time>
      </trkpt>
      <trkpt lat="49.09635" lon="1.7643">
        <ele>160.8</ele>
        <time>2018-08-05T01:37:41+02:00</time>
      </trkpt>
      <trkpt lat="49.0962" lon="1.76375">
        <ele>160.4</ele>
        <time>2018-08-05T01:38:41+02:00</time>
      </trkpt>
      <trkpt lat="49.09597" lon="1.76336">
        <ele>162.1</ele>
        <time>2018-08-05T01:39:41+02:00</time>
      </trkpt>
      <trkpt lat="49.09567" lon="1.76267">
        <ele>162.4</ele>
        <time>2018-08-05T01:40:41+02:00</time>
      </trkpt>
      <trkpt lat="49.09562" lon="1.76242">
        <ele>162.2</ele>
        <time>2018-08-05T01:41:41+02:00</time>
      </trkpt>
      <trkpt lat="49.09548" lon="1.762">
        <ele>162.6</ele>
        <time>2018-08-05T01:42:41+02:00</time>
      </trkpt>
      <trkpt lat="49.09532" lon="1.76146">
        <ele>162.9</ele>
        <time>2018-08-05T01:43:41+02:00</time>
      </trkpt>
      <trkpt lat="49.09519" lon="1.76087">
        <ele>160.8</ele>
        <time>2018-08-05T01:44:41+02:00</time>
      </trkpt>
      <trkpt lat="49.09514" lon="1.76019">
        <ele>163</ele>
        <time>2018-08-05T01:45:41+02:00</time>
      </trkpt>
      <trkpt lat="49.09512" lon="1.75985">
        <ele>165.3</ele>
        <time>2018-08-05T01:46:41+02:00</time>
      </trkpt>
      <trkpt lat="49.09509" lon="1.75925">
        <ele>170.4</ele>
        <time>2018-08-05T01:47:41+02:00</time>
      </trkpt>
      <trkpt lat="49.09505" lon="1.75859">
        <ele>177.2</ele>
        <time>2018-08-05T01:48:41+02:00</time>
      </trkpt>
      <trkpt lat="49.09502" lon="1.75814">
        <ele>181.3</ele>
        <time>2018-08-05T01:50:03+02:00</time>
      </trkpt>
      <trkpt lat="49.09503" lon="1.75791">
        <ele>183.4</ele>
      </trkpt>
      <trkpt lat="49.09497" lon="1.75751">
        <ele>187.7</ele>
        <time>2018-08-05T01:49:41+02:00</time>
      </trkpt>
      <trkpt lat="49.09502" lon="1.75704">
        <ele>192</ele>
        <time>2018-08-05T01:50:41+02:00</time>
      </trkpt>
      <trkpt lat="49.095" lon="1.75632">
        <ele>196.2</ele>
        <time>2018-08-05T01:51:41+02:00</time>
      </trkpt>
      <trkpt lat="49.09497" lon="1.75588">
        <ele>197.8</ele>
        <time>2018-08-05T01:52:41+02:00</time>
      </trkpt>
      <trkpt lat="49.09487" lon="1.75551">
        <ele>199.6</ele>
        <time>2018-08-05T01:53:41+02:00</time>
      </trkpt>
      <trkpt lat="49.09473" lon="1.75508">
        <ele>200.7</ele>
        <time>2018-08-05T01:54:41+02:00</time>
      </trkpt>
      <trkpt lat="49.09448" lon="1.75431">
        <ele>201</ele>
        <time>2018-08-05T01:55:41+02:00</time>
      </trkpt>
      <trkpt lat="49.09419" lon="1.75351">
        <ele>201</ele>
        <time>2018-08-05T01:56:41+02:00</time>
      </trkpt>
      <trkpt lat="49.09403" lon="1.7531">
        <ele>201</ele>
        <time>2018-08-05T01:57:41+02:00</time>
      </trkpt>
      <trkpt lat="49.0937" lon="1.75262">
        <ele>201.3</ele>
        <time>2018-08-05T01:58:41+02:00</time>
      </trkpt>
      <trkpt lat="49.09334" lon="1.75192">
        <ele>200.9</ele>
        <time>2018-08-05T01:59:41+02:00</time>
      </trkpt>
      <trkpt lat="49.09269" lon="1.7509">
        <ele>200.5</ele>
        <time>2018-08-05T02:00:41+02:00</time>
      </trkpt>
      <trkpt lat="49.0925" lon="1.75054">
        <ele>200.9</ele>
        <time>2018-08-05T02:01:41+02:00</time>
      </trkpt>
      <trkpt lat="49.09219" lon="1.74986">
        <ele>199.6</ele>
        <time>2018-08-05T02:02:41+02:00</time>
      </trkpt>
      <trkpt lat="49.09202" lon="1.74948">
        <ele>199.3</ele>
        <time>2018-08-05T02:03:41+02:00</time>
      </trkpt>
      <trkpt lat="49.09181" lon="1.74888">
        <ele>198.5</ele>
        <time>2018-08-05T02:04:41+02:00</time>
      </trkpt>
      <trkpt lat="49.09149" lon="1.74818">
        <ele>198.3</ele>
        <time>2018-08-05T02:05:41+02:00</time>
      </trkpt>
      <trkpt lat="49.09117" lon="1.74746">
        <ele>196.9</ele>
        <time>2018-08-05T02:06:41+02:00</time>
      </trkpt>
      <trkpt lat="49.09037" lon="1.74646">
        <ele>197.4</ele>
        <time>2018-08-05T02:07:41+02:00</time>
      </trkpt>
      <trkpt lat="49.09005" lon="1.74568">
        <ele>197.8</ele>
        <time>2018-08-05T02:08:41+02:00</time>
      </trkpt>
      <trkpt lat="49.08974" lon="1.74523">
        <ele>198</ele>
        <time>2018-08-05T02:09:41+02:00</time>
      </trkpt>
      <trkpt lat="49.08962" lon="1.74508">
        <ele>198</ele>
      </trkpt>
      <trkpt lat="49.08952" lon="1.74451">
        <ele>198</ele>
        <time>2018-08-05T02:10:41+02:00</time>
      </trkpt>
      <trkpt lat="49.08936" lon="1.7441">
        <ele>198.2</ele>
        <time>2018-08-05T02:11:41+02:00</time>
      </trkpt>
      <trkpt lat="49.08922" lon="1.74373">
        <ele>198</ele>
        <time>2018-08-05T02:12:41+02:00</time>
      </trkpt>
      <trkpt lat="49.08909" lon="1.74337">
        <ele>198</ele>
        <time>2018-08-05T02:13:41+02:00</time>
      </trkpt>
      <trkpt lat="49.08891" lon="1.74292">
        <ele>198</ele>
        <time>2018-08-05T02:14:41+02:00</time>
      </trkpt>
      <trkpt lat="49.08846" lon="1.74182">
        <ele>196.5</ele>
        <time>2018-08-05T02:15:41+02:00</time>
      </trkpt>
      <trkpt lat="49.08805" lon="1.74121">
        <ele>196.4</ele>
        <time>2018-08-05T02:16:41+02:00</time>
      </trkpt>
      <trkpt lat="49.08793" lon="1.74101">
        <ele>196.7</ele>
      </trkpt>
      <trkpt lat="49.08791" lon="1.74072">
        <ele>196.1</ele>
        <time>2018-08-05T02:17:41+02:00</time>
      </trkpt>
      <trkpt lat="49.08769" lon="1.73971">
        <ele>193.6</ele>
        <time>2018-08-05T02:18:41+02:00</time>
      </trkpt>
      <trkpt lat="49.08764" lon="1.73953">
        <ele>193.3</ele>
      </trkpt>
      <trkpt lat="49.08747" lon="1.73889">
        <ele>193.1</ele>
        <time>2018-08-05T02:19:41+02:00</time>
      </trkpt>
      <trkpt lat="49.08722" lon="1.73845">
        <ele>191.9</ele>
        <time>2018-08-05T02:20:41+02:00</time>
      </trkpt>
      <trkpt lat="49.08693" lon="1.73762">
        <ele>184.5</ele>
        <time>2018-08-05T02:21:41+02:00</time>
      </trkpt>
      <trkpt lat="49.08689" lon="1.73724">
        <ele>181.7</ele>
        <time>2018-08-05T02:22:41+02:00</time>
      </trkpt>
      <trkpt lat="49.08689" lon="1.73683">
        <ele>179.3</ele>
        <time>2018-08-05T02:23:41+02:00</time>
      </trkpt>
      <trkpt lat="49.08685" lon="1.73627">
        <ele>174.2</ele>
        <time>2018-08-05T02:24:41+02:00</time>
      </trkpt>
      <trkpt lat="49.08672" lon="1.73576">
        <ele>169.9</ele>
        <time>2018-08-05T02:25:41+02:00</time>
      </trkpt>
      <trkpt lat="49.08662" lon="1.73538">
        <ele>167.3</ele>
        <time>2018-08-05T02:26:41+02:00</time>
      </trkpt>
      <trkpt lat="49.08661" lon="1.73442">
        <ele>161.9</ele>
        <time>2018-08-05T02:27:41+02:00</time>
      </trkpt>
      <trkpt lat="49.08687" lon="1.73446">
        <ele>162.8</ele>
        <time>2018-08-05T02:28:41+02:00</time>
      </trkpt>
      <trkpt lat="49.08725" lon="1.73451">
        <ele>162.4</ele>
        <time>2018-08-05T02:29:41+02:00</time>
      </trkpt>
      <trkpt lat="49.08746" lon="1.73454">
        <ele>162.4</ele>
        <time>2018-08-05T02:30:41+02:00</time>
      </trkpt>
      <trkpt lat="49.08765" lon="1.73423">
        <ele>159.8</ele>
        <time>2018-08-05T02:31:41+02:00</time>
      </trkpt>
      <trkpt lat="49.08805" lon="1.7336">
        <ele>155</ele>
        <time>2018-08-05T02:32:41+02:00</time>
      </trkpt>
      <trkpt lat="49.08824" lon="1.7334">
        <ele>154.5</ele>
        <time>2018-08-05T02:33:41+02:00</time>
      </trkpt>
      <trkpt lat="49.08843" lon="1.73314">
        <ele>153.3</ele>
      </trkpt>
      <trkpt lat="49.08861" lon="1.73287">
        <ele>152.3</ele>
        <time>2018-08-05T02:34:41+02:00</time>
      </trkpt>
      <trkpt lat="49.08885" lon="1.73255">
        <ele>151.9</ele>
        <time>2018-08-05T02:35:41+02:00</time>
      </trkpt>
      <trkpt lat="49.08904" lon="1.7322">
        <ele>150.9</ele>
        <time>2018-08-05T02:36:41+02:00</time>
      </trkpt>
      <trkpt lat="49.08932" lon="1.7316">
        <ele>147.1</ele>
        <time>2018-08-05T02:37:41+02:00</time>
      </trkpt>
      <trkpt lat="49.08926" lon="1.73108">
        <ele>144.5</ele>
        <time>2018-08-05T02:38:41+02:00</time>
      </trkpt>
      <trkpt lat="49.08927" lon="1.73096">
        <ele>144.1</ele>
      </trkpt>
      <trkpt lat="49.08951" lon="1.73016">
        <ele>144.7</ele>
        <time>2018-08-05T02:39:41+02:00</time>
      </trkpt>
      <trkpt lat="49.08974" lon="1.72934">
        <ele>147.4</ele>
        <time>2018-08-05T02:40:41+02:00</time>
      </trkpt>
      <trkpt lat="49.09001" lon="1.72885">
        <ele>150.2</ele>
        <time>2018-08-05T02:41:41+02:00</time>
      </trkpt>
      <trkpt lat="49.09018" lon="1.72851">
        <ele>152</ele>
        <time>2018-08-05T02:42:41+02:00</time>
      </trkpt>
      <trkpt lat="49.0907" lon="1.72758">
        <ele>157.2</ele>
        <time>2018-08-05T02:43:41+02:00</time>
      </trkpt>
      <trkpt lat="49.09101" lon="1.72701">
        <ele>160.4</ele>
        <time>2018-08-05T02:44:41+02:00</time>
      </trkpt>
      <trkpt lat="49.09106" lon="1.72668">
        <ele>161.8</ele>
        <time>2018-08-05T02:45:41+02:00</time>
      </trkpt>
      <trkpt lat="49.09116" lon="1.72579">
        <ele>164.3</ele>
        <time>2018-08-05T02:46:41+02:00</time>
      </trkpt>
      <trkpt lat="49.09123" lon="1.72553">
        <ele>165.5</ele>
        <time>2018-08-05T02:47:41+02:00</time>
      </trkpt>
      <trkpt lat="49.09115" lon="1.72525">
        <ele>166.3</ele>
        <time>2018-08-05T02:48:41+02:00</time>
      </trkpt>
      <trkpt lat="49.09193" lon="1.72497">
        <ele>172.1</ele>
        <time>2018-08-05T02:50:57+02:00</time>
      </trkpt>
      <trkpt lat="49.09217" lon="1.72428">
        <ele>178</ele>
        <time>2018-08-05T02:53:22+02:00</time>
      </trkpt>
      <trkpt lat="49.09221" lon="1.72405">
        <ele>180.1</ele>
        <time>2018-08-05T02:56:28+02:00</time>
      </trkpt>
      <trkpt lat="49.09202" lon="1.72398">
        <ele>179.8</ele>
      </trkpt>
      <trkpt lat="49.09182" lon="1.72394">
        <ele>178.8</ele>
      </trkpt>
      <trkpt lat="49.09169" lon="1.72371">
        <ele>178.9</ele>
        <time>2018-08-05T02:57:43+02:00</time>
      </trkpt>
      <trkpt lat="49.09157" lon="1.72382">
        <ele>177.3</ele>
        <time>2018-08-05T02:58:00+02:00</time>
      </trkpt>
      <trkpt lat="49.09057" lon="1.72432">
        <ele>164.7</ele>
        <time>2018-08-05T02:51:41+02:00</time>
      </trkpt>
      <trkpt lat="49.08918" lon="1.72508">
        <ele>155.8</ele>
        <time>2018-08-05T02:53:41+02:00</time>
      </trkpt>
      <trkpt lat="49.08817" lon="1.72567">
        <ele>148.8</ele>
        <time>2018-08-05T02:54:41+02:00</time>
      </trkpt>
      <trkpt lat="49.08729" lon="1.72445">
        <ele>145.2</ele>
        <time>2018-08-05T02:56:41+02:00</time>
      </trkpt>
      <trkpt lat="49.08662" lon="1.72366">
        <ele>142.8</ele>
        <time>2018-08-05T02:57:41+02:00</time>
      </trkpt>
      <trkpt lat="49.08625" lon="1.72339">
        <ele>141.6</ele>
        <time>2018-08-05T02:59:41+02:00</time>
      </trkpt>
      <trkpt lat="49.08612" lon="1.72335">
        <ele>141.1</ele>
        <time>2018-08-05T03:00:41+02:00</time>
      </trkpt>
      <trkpt lat="49.08604" lon="1.72334">
        <ele>140.8</ele>
      </trkpt>
      <trkpt lat="49.08575" lon="1.72455">
        <ele>141.7</ele>
        <time>2018-08-05T03:01:41+02:00</time>
      </trkpt>
      <trkpt lat="49.08547" lon="1.72594">
        <ele>136.2</ele>
        <time>2018-08-05T03:02:41+02:00</time>
      </trkpt>
      <trkpt lat="49.08539" lon="1.72621">
        <ele>134.4</ele>
        <time>2018-08-05T03:03:41+02:00</time>
      </trkpt>
      <trkpt lat="49.08528" lon="1.72673">
        <ele>132</ele>
        <time>2018-08-05T03:04:41+02:00</time>
      </trkpt>
      <trkpt lat="49.08535" lon="1.72743">
        <ele>131.8</ele>
        <time>2018-08-05T03:05:41+02:00</time>
      </trkpt>
      <trkpt lat="49.08545" lon="1.72839">
        <ele>136.2</ele>
        <time>2018-08-05T03:06:41+02:00</time>
      </trkpt>
      <trkpt lat="49.08545" lon="1.72887">
        <ele>138.5</ele>
        <time>2018-08-05T03:07:41+02:00</time>
      </trkpt>
      <trkpt lat="49.08552" lon="1.72928">
        <ele>139.8</ele>
        <time>2018-08-05T03:08:41+02:00</time>
      </trkpt>
      <trkpt lat="49.08573" lon="1.72975">
        <ele>142.1</ele>
        <time>2018-08-05T03:09:41+02:00</time>
      </trkpt>
      <trkpt lat="49.08578" lon="1.73004">
        <ele>143.1</ele>
        <time>2018-08-05T03:10:41+02:00</time>
      </trkpt>
      <trkpt lat="49.0853" lon="1.73053">
        <ele>144.9</ele>
        <time>2018-08-05T03:11:41+02:00</time>
      </trkpt>
      <trkpt lat="49.08495" lon="1.7309">
        <ele>145.4</ele>
        <time>2018-08-05T03:12:41+02:00</time>
      </trkpt>
      <trkpt lat="49.08427" lon="1.73117">
        <ele>147.2</ele>
        <time>2018-08-05T03:13:41+02:00</time>
      </trkpt>
      <trkpt lat="49.08356" lon="1.73121">
        <ele>147.4</ele>
        <time>2018-08-05T03:14:41+02:00</time>
      </trkpt>
      <trkpt lat="49.08263" lon="1.73112">
        <ele>147</ele>
        <time>2018-08-05T03:15:41+02:00</time>
      </trkpt>
      <trkpt lat="49.08226" lon="1.73115">
        <ele>146.3</ele>
        <time>2018-08-05T03:16:41+02:00</time>
      </trkpt>
      <trkpt lat="49.08213" lon="1.73295">
        <ele>152.9</ele>
        <time>2018-08-05T03:17:41+02:00</time>
      </trkpt>
      <trkpt lat="49.08205" lon="1.73339">
        <ele>154.6</ele>
        <time>2018-08-05T03:18:41+02:00</time>
      </trkpt>
      <trkpt lat="49.08189" lon="1.73484">
        <ele>159.8</ele>
        <time>2018-08-05T03:19:41+02:00</time>
      </trkpt>
      <trkpt lat="49.08187" lon="1.73528">
        <ele>162.3</ele>
        <time>2018-08-05T03:20:41+02:00</time>
      </trkpt>
      <trkpt lat="49.08187" lon="1.73588">
        <ele>165.7</ele>
        <time>2018-08-05T03:21:41+02:00</time>
      </trkpt>
      <trkpt lat="49.08186" lon="1.73617">
        <ele>168.4</ele>
        <time>2018-08-05T03:22:41+02:00</time>
      </trkpt>
      <trkpt lat="49.08163" lon="1.73644">
        <ele>169.2</ele>
        <time>2018-08-05T03:23:41+02:00</time>
      </trkpt>
      <trkpt lat="49.08148" lon="1.73663">
        <ele>169.9</ele>
        <time>2018-08-05T03:24:41+02:00</time>
      </trkpt>
      <trkpt lat="49.08115" lon="1.73708">
        <ele>171</ele>
        <time>2018-08-05T03:25:41+02:00</time>
      </trkpt>
      <trkpt lat="49.08083" lon="1.73755">
        <ele>172</ele>
        <time>2018-08-05T03:26:41+02:00</time>
      </trkpt>
      <trkpt lat="49.08087" lon="1.73764">
        <ele>172</ele>
      </trkpt>
      <trkpt lat="49.08051" lon="1.73835">
        <ele>172.8</ele>
        <time>2018-08-05T03:27:41+02:00</time>
      </trkpt>
      <trkpt lat="49.08054" lon="1.73844">
        <ele>172.9</ele>
        <time>2018-08-05T03:28:41+02:00</time>
      </trkpt>
      <trkpt lat="49.08069" lon="1.73861">
        <ele>173.5</ele>
        <time>2018-08-05T03:29:41+02:00</time>
      </trkpt>
      <trkpt lat="49.08106" lon="1.73892">
        <ele>174.8</ele>
        <time>2018-08-05T03:30:41+02:00</time>
      </trkpt>
      <trkpt lat="49.08113" lon="1.73936">
        <ele>174.3</ele>
        <time>2018-08-05T03:31:41+02:00</time>
      </trkpt>
      <trkpt lat="49.08126" lon="1.74003">
        <ele>172.9</ele>
        <time>2018-08-05T03:32:41+02:00</time>
      </trkpt>
      <trkpt lat="49.08151" lon="1.74115">
        <ele>169.2</ele>
        <time>2018-08-05T03:33:41+02:00</time>
      </trkpt>
      <trkpt lat="49.08155" lon="1.74186">
        <ele>164.6</ele>
        <time>2018-08-05T03:34:41+02:00</time>
      </trkpt>
      <trkpt lat="49.0813" lon="1.74261">
        <ele>159.5</ele>
        <time>2018-08-05T03:35:41+02:00</time>
      </trkpt>
      <trkpt lat="49.08065" lon="1.74446">
        <ele>148.3</ele>
        <time>2018-08-05T03:36:41+02:00</time>
      </trkpt>
      <trkpt lat="49.08033" lon="1.7455">
        <ele>144.4</ele>
        <time>2018-08-05T03:37:41+02:00</time>
      </trkpt>
      <trkpt lat="49.08023" lon="1.7459">
        <ele>143</ele>
        <time>2018-08-05T03:38:41+02:00</time>
      </trkpt>
      <trkpt lat="49.08033" lon="1.74608">
        <ele>143.2</ele>
        <time>2018-08-05T03:39:41+02:00</time>
      </trkpt>
      <trkpt lat="49.08033" lon="1.74646">
        <ele>144.1</ele>
        <time>2018-08-05T03:40:41+02:00</time>
      </trkpt>
      <trkpt lat="49.08026" lon="1.74716">
        <ele>145.7</ele>
      </trkpt>
      <trkpt lat="49.08019" lon="1.74734">
        <ele>146.1</ele>
      </trkpt>
      <trkpt lat="49.08026" lon="1.74723">
        <ele>145.9</ele>
        <time>2018-08-05T03:41:41+02:00</time>
      </trkpt>
      <trkpt lat="49.08068" lon="1.74775">
        <ele>151.2</ele>
        <time>2018-08-05T03:42:41+02:00</time>
      </trkpt>
      <trkpt lat="49.08098" lon="1.74814">
        <ele>155.2</ele>
      </trkpt>
      <trkpt lat="49.08124" lon="1.74854">
        <ele>158.6</ele>
        <time>2018-08-05T03:43:41+02:00</time>
      </trkpt>
      <trkpt lat="49.08138" lon="1.74881">
        <ele>160.6</ele>
        <time>2018-08-05T03:44:41+02:00</time>
      </trkpt>
      <trkpt lat="49.08148" lon="1.74922">
        <ele>163.5</ele>
        <time>2018-08-05T03:45:41+02:00</time>
      </trkpt>
      <trkpt lat="49.0816" lon="1.74965">
        <ele>167</ele>
        <time>2018-08-05T03:46:41+02:00</time>
      </trkpt>
      <trkpt lat="49.08176" lon="1.75042">
        <ele>174.4</ele>
        <time>2018-08-05T03:47:41+02:00</time>
      </trkpt>
      <trkpt lat="49.08178" lon="1.75091">
        <ele>177.8</ele>
        <time>2018-08-05T03:48:41+02:00</time>
      </trkpt>
      <trkpt lat="49.08181" lon="1.75159">
        <ele>182</ele>
        <time>2018-08-05T03:49:41+02:00</time>
      </trkpt>
      <trkpt lat="49.08189" lon="1.75169">
        <ele>183.6</ele>
        <time>2018-08-05T03:50:41+02:00</time>
      </trkpt>
      <trkpt lat="49.08234" lon="1.75221">
        <ele>189.8</ele>
        <time>2018-08-05T03:51:41+02:00</time>
      </trkpt>
      <trkpt lat="49.08255" lon="1.75242">
        <ele>191.8</ele>
        <time>2018-08-05T03:52:41+02:00</time>
      </trkpt>
      <trkpt lat="49.08295" lon="1.75268">
        <ele>192.9</ele>
        <time>2018-08-05T03:53:41+02:00</time>
      </trkpt>
      <trkpt lat="49.08319" lon="1.75277">
        <ele>193.5</ele>
        <time>2018-08-05T03:54:41+02:00</time>
      </trkpt>
      <trkpt lat="49.08354" lon="1.75293">
        <ele>194.7</ele>
        <time>2018-08-05T03:55:41+02:00</time>
      </trkpt>
      <trkpt lat="49.08375" lon="1.75305">
        <ele>195.5</ele>
        <time>2018-08-05T03:56:41+02:00</time>
      </trkpt>
      <trkpt lat="49.08408" lon="1.75318">
        <ele>196</ele>
        <time>2018-08-05T03:57:41+02:00</time>
      </trkpt>
      <trkpt lat="49.0843" lon="1.75328">
        <ele>196</ele>
        <time>2018-08-05T03:58:41+02:00</time>
      </trkpt>
      <trkpt lat="49.08452" lon="1.75333">
        <ele>196.3</ele>
        <time>2018-08-05T03:59:41+02:00</time>
      </trkpt>
      <trkpt lat="49.08498" lon="1.75335">
        <ele>197</ele>
        <time>2018-08-05T04:00:41+02:00</time>
      </trkpt>
      <trkpt lat="49.08559" lon="1.75334">
        <ele>198</ele>
        <time>2018-08-05T04:01:41+02:00</time>
      </trkpt>
      <trkpt lat="49.08632" lon="1.75402">
        <ele>198.9</ele>
        <time>2018-08-05T04:02:41+02:00</time>
      </trkpt>
      <trkpt lat="49.08706" lon="1.75443">
        <ele>200.4</ele>
        <time>2018-08-05T04:03:41+02:00</time>
      </trkpt>
      <trkpt lat="49.08736" lon="1.75463">
        <ele>201</ele>
        <time>2018-08-05T04:04:41+02:00</time>
      </trkpt>
      <trkpt lat="49.08745" lon="1.7548">
        <ele>201.2</ele>
      </trkpt>
      <trkpt lat="49.08754" lon="1.75495">
        <ele>201.8</ele>
        <time>2018-08-05T04:06:41+02:00</time>
      </trkpt>
      <trkpt lat="49.0877" lon="1.75511">
        <ele>202.3</ele>
      </trkpt>
      <trkpt lat="49.0878" lon="1.75539">
        <ele>203</ele>
        <time>2018-08-05T04:07:41+02:00</time>
      </trkpt>
      <trkpt lat="49.08793" lon="1.75576">
        <ele>203.7</ele>
        <time>2018-08-05T04:08:41+02:00</time>
      </trkpt>
      <trkpt lat="49.08804" lon="1.75616">
        <ele>204</ele>
        <time>2018-08-05T04:09:41+02:00</time>
      </trkpt>
      <trkpt lat="49.08822" lon="1.7565">
        <ele>204</ele>
        <time>2018-08-05T04:10:41+02:00</time>
      </trkpt>
      <trkpt lat="49.08841" lon="1.75662">
        <ele>204</ele>
        <time>2018-08-05T04:11:41+02:00</time>
      </trkpt>
      <trkpt lat="49.08919" lon="1.75688">
        <ele>205</ele>
        <time>2018-08-05T04:12:41+02:00</time>
      </trkpt>
      <trkpt lat="49.09003" lon="1.75713">
        <ele>204</ele>
        <time>2018-08-05T04:13:41+02:00</time>
      </trkpt>
      <trkpt lat="49.09011" lon="1.75722">
        <ele>204</ele>
      </trkpt>
      <trkpt lat="49.09018" lon="1.75761">
        <ele>204</ele>
        <time>2018-08-05T04:14:41+02:00</time>
      </trkpt>
      <trkpt lat="49.09024" lon="1.75839">
        <ele>204</ele>
        <time>2018-08-05T04:15:41+02:00</time>
      </trkpt>
      <trkpt lat="49.09034" lon="1.75972">
        <ele>204</ele>
        <time>2018-08-05T04:16:41+02:00</time>
      </trkpt>
      <trkpt lat="49.09046" lon="1.76096">
        <ele>202</ele>
        <time>2018-08-05T04:17:41+02:00</time>
      </trkpt>
      <trkpt lat="49.09023" lon="1.76112">
        <ele>203.2</ele>
        <time>2018-08-05T04:18:41+02:00</time>
      </trkpt>
      <trkpt lat="49.08943" lon="1.76098">
        <ele>204</ele>
        <time>2018-08-05T04:19:41+02:00</time>
      </trkpt>
      <trkpt lat="49.08751" lon="1.76063">
        <ele>201.3</ele>
        <time>2018-08-05T04:20:41+02:00</time>
      </trkpt>
      <trkpt lat="49.08724" lon="1.76117">
        <ele>201.1</ele>
        <time>2018-08-05T04:21:41+02:00</time>
      </trkpt>
      <trkpt lat="49.08699" lon="1.76245">
        <ele>199.2</ele>
      </trkpt>
      <trkpt lat="49.08679" lon="1.76394">
        <ele>197.4</ele>
        <time>2018-08-05T04:22:41+02:00</time>
      </trkpt>
      <trkpt lat="49.08701" lon="1.76478">
        <ele>198.3</ele>
        <time>2018-08-05T04:23:41+02:00</time>
      </trkpt>
      <trkpt lat="49.08715" lon="1.76538">
        <ele>198.7</ele>
        <time>2018-08-05T04:24:41+02:00</time>
      </trkpt>
      <trkpt lat="49.08717" lon="1.76728">
        <ele>198.6</ele>
      </trkpt>
      <trkpt lat="49.08715" lon="1.76839">
        <ele>198.9</ele>
        <time>2018-08-05T04:25:41+02:00</time>
      </trkpt>
      <trkpt lat="49.08756" lon="1.76927">
        <ele>199</ele>
      </trkpt>
      <trkpt lat="49.08773" lon="1.76984">
        <ele>198.9</ele>
        <time>2018-08-05T04:26:41+02:00</time>
      </trkpt>
      <trkpt lat="49.08781" lon="1.77011">
        <ele>198.7</ele>
        <time>2018-08-05T04:27:41+02:00</time>
      </trkpt>
      <trkpt lat="49.08799" lon="1.77037">
        <ele>198.5</ele>
      </trkpt>
      <trkpt lat="49.08811" lon="1.77054">
        <ele>198</ele>
      </trkpt>
      <trkpt lat="49.08811" lon="1.77068">
        <ele>197.5</ele>
      </trkpt>
      <trkpt lat="49.08838" lon="1.77122">
        <ele>195.5</ele>
      </trkpt>
      <trkpt lat="49.08848" lon="1.77158">
        <ele>194.6</ele>
        <time>2018-08-05T04:38:41+02:00</time>
      </trkpt>
      <trkpt lat="49.08857" lon="1.77172">
        <ele>195.4</ele>
        <time>2018-08-05T04:39:41+02:00</time>
      </trkpt>
      <trkpt lat="49.08888" lon="1.77233">
        <ele>197</ele>
        <time>2018-08-05T04:40:41+02:00</time>
      </trkpt>
      <trkpt lat="49.08915" lon="1.77271">
        <ele>197.9</ele>
        <time>2018-08-05T04:41:41+02:00</time>
      </trkpt>
      <trkpt lat="49.0895" lon="1.77269">
        <ele>199.2</ele>
        <time>2018-08-05T04:42:41+02:00</time>
      </trkpt>
      <trkpt lat="49.08977" lon="1.77269">
        <ele>200</ele>
        <time>2018-08-05T04:43:41+02:00</time>
      </trkpt>
      <trkpt lat="49.08983" lon="1.77306">
        <ele>200</ele>
        <time>2018-08-05T04:44:41+02:00</time>
      </trkpt>
      <trkpt lat="49.08992" lon="1.77342">
        <ele>199.5</ele>
        <time>2018-08-05T04:45:41+02:00</time>
      </trkpt>
      <trkpt lat="49.08995" lon="1.77401">
        <ele>199</ele>
        <time>2018-08-05T04:46:41+02:00</time>
      </trkpt>
      <trkpt lat="49.08988" lon="1.77504">
        <ele>198.6</ele>
        <time>2018-08-05T04:47:41+02:00</time>
      </trkpt>
      <trkpt lat="49.08986" lon="1.77585">
        <ele>198</ele>
        <time>2018-08-05T04:48:41+02:00</time>
      </trkpt>
      <trkpt lat="49.08985" lon="1.77637">
        <ele>198.4</ele>
        <time>2018-08-05T04:49:41+02:00</time>
      </trkpt>
      <trkpt lat="49.08984" lon="1.7775">
        <ele>200</ele>
        <time>2018-08-05T04:50:41+02:00</time>
      </trkpt>
      <trkpt lat="49.09003" lon="1.7785">
        <ele>200.9</ele>
        <time>2018-08-05T04:51:41+02:00</time>
      </trkpt>
      <trkpt lat="49.09008" lon="1.77903">
        <ele>200.7</ele>
      </trkpt>
      <trkpt lat="49.09001" lon="1.77932">
        <ele>201</ele>
      </trkpt>
      <trkpt lat="49.09007" lon="1.78007">
        <ele>201</ele>
        <time>2018-08-05T04:52:41+02:00</time>
      </trkpt>
      <trkpt lat="49.09" lon="1.78056">
        <ele>201</ele>
        <time>2018-08-05T04:53:41+02:00</time>
      </trkpt>
      <trkpt lat="49.08994" lon="1.78101">
        <ele>201.2</ele>
      </trkpt>
      <trkpt lat="49.08996" lon="1.78144">
        <ele>201</ele>
        <time>2018-08-05T04:54:41+02:00</time>
      </trkpt>
      <trkpt lat="49.09002" lon="1.78182">
        <ele>201</ele>
        <time>2018-08-05T04:55:41+02:00</time>
      </trkpt>
      <trkpt lat="49.09019" lon="1.78289">
        <ele>200</ele>
        <time>2018-08-05T04:56:41+02:00</time>
      </trkpt>
      <trkpt lat="49.09015" lon="1.78344">
        <ele>200</ele>
      </trkpt>
      <trkpt lat="49.09025" lon="1.78436">
        <ele>199.3</ele>
        <time>2018-08-05T04:57:41+02:00</time>
      </trkpt>
      <trkpt lat="49.09031" lon="1.78547">
        <ele>200.1</ele>
        <time>2018-08-05T04:58:41+02:00</time>
      </trkpt>
      <trkpt lat="49.09044" lon="1.78716">
        <ele>200.6</ele>
        <time>2018-08-05T04:59:41+02:00</time>
      </trkpt>
      <trkpt lat="49.09045" lon="1.78762">
        <ele>200.4</ele>
      </trkpt>
      <trkpt lat="49.09048" lon="1.78783">
        <ele>200.3</ele>
        <time>2018-08-05T05:00:41+02:00</time>
      </trkpt>
      <trkpt lat="49.09054" lon="1.78821">
        <ele>199.9</ele>
        <time>2018-08-05T05:01:41+02:00</time>
      </trkpt>
      <trkpt lat="49.09052" lon="1.78848">
        <ele>199.1</ele>
        <time>2018-08-05T05:02:41+02:00</time>
      </trkpt>
      <trkpt lat="49.09052" lon="1.78888">
        <ele>197.6</ele>
      </trkpt>
      <trkpt lat="49.09063" lon="1.78961">
        <ele>198.3</ele>
        <time>2018-08-05T05:03:41+02:00</time>
      </trkpt>
      <trkpt lat="49.0907" lon="1.79038">
        <ele>197.2</ele>
        <time>2018-08-05T05:04:41+02:00</time>
      </trkpt>
      <trkpt lat="49.09081" lon="1.79094">
        <ele>196.4</ele>
        <time>2018-08-05T05:05:41+02:00</time>
      </trkpt>
      <trkpt lat="49.09094" lon="1.7917">
        <ele>194.6</ele>
        <time>2018-08-05T05:06:41+02:00</time>
      </trkpt>
      <trkpt lat="49.09108" lon="1.79198">
        <ele>194.5</ele>
        <time>2018-08-05T05:07:41+02:00</time>
      </trkpt>
      <trkpt lat="49.09125" lon="1.79223">
        <ele>192.9</ele>
        <time>2018-08-05T05:08:41+02:00</time>
      </trkpt>
      <trkpt lat="49.09154" lon="1.79253">
        <ele>190.7</ele>
        <time>2018-08-05T05:09:41+02:00</time>
      </trkpt>
      <trkpt lat="49.0917" lon="1.79265">
        <ele>189.3</ele>
        <time>2018-08-05T05:10:41+02:00</time>
      </trkpt>
      <trkpt lat="49.09211" lon="1.79289">
        <ele>185.9</ele>
        <time>2018-08-05T05:11:41+02:00</time>
      </trkpt>
      <trkpt lat="49.09233" lon="1.79261">
        <ele>186.3</ele>
        <time>2018-08-05T05:12:41+02:00</time>
      </trkpt>
      <trkpt lat="49.0926" lon="1.79237">
        <ele>186</ele>
        <time>2018-08-05T05:13:41+02:00</time>
      </trkpt>
      <trkpt lat="49.09272" lon="1.79189">
        <ele>188</ele>
        <time>2018-08-05T05:14:41+02:00</time>
      </trkpt>
      <trkpt lat="49.09288" lon="1.79135">
        <ele>185.9</ele>
        <time>2018-08-05T05:15:41+02:00</time>
      </trkpt>
      <trkpt lat="49.09298" lon="1.79101">
        <ele>184.3</ele>
      </trkpt>
      <trkpt lat="49.09302" lon="1.7905">
        <ele>184.8</ele>
        <time>2018-08-05T05:16:41+02:00</time>
      </trkpt>
      <trkpt lat="49.09314" lon="1.78979">
        <ele>182.2</ele>
        <time>2018-08-05T05:17:41+02:00</time>
      </trkpt>
      <trkpt lat="49.09325" lon="1.78968">
        <ele>179.8</ele>
        <time>2018-08-05T05:18:41+02:00</time>
      </trkpt>
      <trkpt lat="49.09348" lon="1.78961">
        <ele>175.6</ele>
        <time>2018-08-05T05:19:41+02:00</time>
      </trkpt>
      <trkpt lat="49.09397" lon="1.78978">
        <ele>170.6</ele>
        <time>2018-08-05T05:20:41+02:00</time>
      </trkpt>
      <trkpt lat="49.09412" lon="1.78972">
        <ele>170.2</ele>
        <time>2018-08-05T05:21:41+02:00</time>
      </trkpt>
    </trkseg>
  </trk>
</gpx>